»·PEaware :: UAL576 KSLC-KSNA

UAL576 :: KSLC-KSNA

FLIGHT INFORMATION

Flight Status: Arrived
Operator:
United Airlines
More flights by this operator :: More flights under this callsign
Pilot: Anonymous 8274 (8274)
Aircraft: BOEING 737-200
(B732)
More flights by this aircraft type
Origin: KSLC Salt Lake City Intl
United States
Destination: KSNA John Wayne-Orange Co
United States
More flights between these airports :: More routes between these airports
Route: +FFU9 BCE J11 CORKR J76 LAS HEC KAYOH7
File this flight plan on PilotEdge
Remarks:
Altitude:
(Current/Filed)
29,000ft
Speed:
(Current/Filed)
470kts
Departed: 09-Oct-18 04:13 PM
Arrived: 09-Oct-18 05:58 PM
Distance/Time
Traveled:
511nm/1:45
Distance/Time
To Go:
Arrived

Flight Plot

Page will automatically refresh every two minutes.

Flight plan parsing failed; only flown route is shown


Map Options




Map Legend


Flown Route
Filed Route
Departure Airport
Arrival Airport
Navaid (VOR, NDB)
Fix

Horizontal Profiles

Position Reports

Time Latitude Longitude Heading Altitude Ground
Speed
09-Oct-18 15:43 40.787745 -111.981157 282 4236ft 0kts
09-Oct-18 15:44 40.787745 -111.981157 282 4236ft 0kts
09-Oct-18 15:45 40.787745 -111.981157 282 4236ft 0kts
09-Oct-18 15:46 40.787745 -111.981157 282 4236ft 0kts
09-Oct-18 15:47 40.787745 -111.981157 282 4236ft 0kts
09-Oct-18 15:48 40.787745 -111.981157 282 4236ft 0kts
09-Oct-18 15:49 40.787745 -111.981157 282 4236ft 0kts
09-Oct-18 15:50 40.787745 -111.981157 282 4236ft 0kts
09-Oct-18 15:51 40.787745 -111.981157 282 4236ft 0kts
09-Oct-18 15:52 40.787745 -111.981157 282 4236ft 0kts
09-Oct-18 15:53 40.787745 -111.981157 282 4236ft 0kts
09-Oct-18 15:54 40.787745 -111.981157 282 4236ft 0kts
09-Oct-18 15:55 40.787745 -111.981157 282 4236ft 0kts
09-Oct-18 15:56 40.787745 -111.981157 282 4236ft 0kts
09-Oct-18 15:57 40.787745 -111.981157 282 4236ft 0kts
09-Oct-18 15:58 40.787745 -111.981157 282 4236ft 0kts
09-Oct-18 15:59 40.787745 -111.981161 282 4236ft 0kts
09-Oct-18 16:00 40.787553 -111.980458 327 4236ft 2kts
09-Oct-18 16:01 40.787300 -111.980424 19 4236ft 0kts
09-Oct-18 16:02 40.787300 -111.980424 19 4236ft 0kts
09-Oct-18 16:03 40.787300 -111.980424 19 4236ft 0kts
09-Oct-18 16:04 40.787300 -111.980424 19 4236ft 0kts
09-Oct-18 16:05 40.787920 -111.980134 19 4236ft 10kts
09-Oct-18 16:06 40.789696 -111.978440 83 4236ft 0kts
09-Oct-18 16:07 40.789696 -111.978440 83 4236ft 0kts
09-Oct-18 16:08 40.789696 -111.978440 83 4236ft 0kts
09-Oct-18 16:09 40.789721 -111.978105 84 4236ft 7kts
09-Oct-18 16:10 40.793313 -111.977469 354 4236ft 25kts
09-Oct-18 16:11 40.802426 -111.978454 6 4236ft 37kts
09-Oct-18 16:12 40.807213 -111.978439 39 4236ft 0kts
09-Oct-18 16:13 40.807213 -111.978439 39 4236ft 0kts
09-Oct-18 16:14 40.807386 -111.977402 103 4236ft 8kts
09-Oct-18 16:15 40.796495 -111.975669 174 4236ft 124kts
09-Oct-18 16:16 40.755285 -111.969417 171 5704ft 157kts
09-Oct-18 16:17 40.703222 -111.958872 171 7155ft 215kts
09-Oct-18 16:18 40.636712 -111.945350 171 8732ft 269kts
09-Oct-18 16:19 40.563421 -111.930243 171 11574ft 262kts
09-Oct-18 16:20 40.487774 -111.925301 178 13252ft 291kts
09-Oct-18 16:21 40.400379 -111.917942 181 14123ft 339kts
09-Oct-18 16:22 40.320701 -111.917404 182 15516ft 349kts
09-Oct-18 16:23 40.207607 -111.935058 193 17368ft 357kts
09-Oct-18 16:24 40.110056 -111.962424 190 18762ft 366kts
09-Oct-18 16:25 40.008097 -111.970635 185 19994ft 375kts
09-Oct-18 16:26 39.903981 -111.983416 188 21103ft 381kts
09-Oct-18 16:27 39.816913 -111.994955 188 21934ft 386kts
09-Oct-18 16:28 39.710540 -112.008926 188 22841ft 392kts
09-Oct-18 16:29 39.601793 -112.024406 190 23659ft 397kts
09-Oct-18 16:30 39.491969 -112.043645 190 24358ft 403kts
09-Oct-18 16:31 39.381504 -112.062804 190 25012ft 407kts
09-Oct-18 16:32 39.270027 -112.079116 184 25604ft 413kts
09-Oct-18 16:33 39.156870 -112.082967 184 26129ft 417kts
09-Oct-18 16:34 39.042660 -112.088000 186 26618ft 419kts
09-Oct-18 16:35 38.907568 -112.100194 189 27128ft 421kts
09-Oct-18 16:36 38.813587 -112.115658 190 27458ft 423kts
09-Oct-18 16:37 38.697665 -112.138643 193 27816ft 425kts
09-Oct-18 16:38 38.581572 -112.165521 194 28154ft 427kts
09-Oct-18 16:39 38.466120 -112.199734 196 28465ft 428kts
09-Oct-18 16:40 38.349440 -112.228557 191 28750ft 432kts
09-Oct-18 16:41 38.208310 -112.232444 181 28779ft 444kts
09-Oct-18 16:42 38.106221 -112.238145 187 28906ft 444kts
09-Oct-18 16:43 37.963572 -112.261861 195 28912ft 443kts
09-Oct-18 16:44 37.869946 -112.285440 189 28915ft 442kts
09-Oct-18 16:45 37.748350 -112.301449 187 28907ft 442kts
09-Oct-18 16:46 37.625097 -112.303029 181 28912ft 446kts
09-Oct-18 16:47 37.501071 -112.309448 184 28913ft 448kts
09-Oct-18 16:48 37.376647 -112.319133 184 28913ft 451kts
09-Oct-18 16:49 37.251467 -112.328876 184 28914ft 453kts
09-Oct-18 16:50 37.126261 -112.338643 184 28914ft 454kts
09-Oct-18 16:51 37.000250 -112.348477 184 28915ft 456kts
09-Oct-18 16:52 36.884390 -112.357518 184 28885ft 458kts
09-Oct-18 16:53 36.758512 -112.367344 184 28884ft 458kts
09-Oct-18 16:54 36.631753 -112.377224 184 28885ft 458kts
09-Oct-18 16:55 36.504720 -112.382362 182 28937ft 456kts
09-Oct-18 16:56 36.378389 -112.386867 182 28940ft 456kts
09-Oct-18 16:57 36.251882 -112.391398 182 28940ft 456kts
09-Oct-18 16:58 36.125455 -112.395917 182 28941ft 456kts
09-Oct-18 16:59 35.999810 -112.406662 204 28941ft 447kts
09-Oct-18 17:00 35.935606 -112.519836 273 28946ft 417kts
09-Oct-18 17:01 35.971863 -112.649678 298 28939ft 413kts
09-Oct-18 17:02 36.023885 -112.775750 297 28943ft 414kts
09-Oct-18 17:03 36.055478 -112.911676 276 28863ft 420kts
09-Oct-18 17:04 36.056733 -113.056393 269 28860ft 423kts
09-Oct-18 17:05 36.051716 -113.201823 268 28860ft 424kts
09-Oct-18 17:06 36.045480 -113.347343 268 28860ft 426kts
09-Oct-18 17:07 36.038770 -113.493442 268 28857ft 427kts
09-Oct-18 17:08 36.031730 -113.639723 268 28859ft 427kts
09-Oct-18 17:09 36.024929 -113.781185 267 28861ft 428kts
09-Oct-18 17:10 36.037794 -113.926184 275 28748ft 429kts
09-Oct-18 17:11 36.021242 -114.071845 273 28732ft 429kts
09-Oct-18 17:12 36.031709 -114.217822 280 28725ft 427kts
09-Oct-18 17:13 36.053498 -114.386566 280 28724ft 427kts
09-Oct-18 17:14 36.069132 -114.507196 280 28724ft 427kts
09-Oct-18 17:15 36.084989 -114.673768 274 28725ft 428kts
09-Oct-18 17:16 36.082456 -114.796005 269 28726ft 429kts
09-Oct-18 17:17 36.078185 -114.943253 269 28698ft 430kts
09-Oct-18 17:18 36.078525 -115.090888 273 28698ft 429kts
09-Oct-18 17:19 36.056591 -115.255929 231 28703ft 437kts
09-Oct-18 17:20 35.968998 -115.318689 206 28728ft 442kts
09-Oct-18 17:21 35.861262 -115.379691 207 28749ft 443kts
09-Oct-18 17:22 35.765212 -115.470256 221 28740ft 440kts
09-Oct-18 17:23 35.670498 -115.565399 221 28749ft 440kts
09-Oct-18 17:24 35.585261 -115.656544 222 28750ft 440kts
09-Oct-18 17:25 35.491684 -115.747856 220 28751ft 442kts
09-Oct-18 17:26 35.395460 -115.840878 220 28751ft 443kts
09-Oct-18 17:27 35.299668 -115.934943 222 28806ft 441kts
09-Oct-18 17:28 35.206044 -116.031850 222 28806ft 442kts
09-Oct-18 17:29 35.112604 -116.128803 223 28807ft 443kts
09-Oct-18 17:30 35.020008 -116.227874 223 28806ft 444kts
09-Oct-18 17:31 34.928477 -116.325574 223 27496ft 431kts
09-Oct-18 17:32 34.846046 -116.412826 223 25429ft 419kts
09-Oct-18 17:33 34.758872 -116.503159 229 23254ft 405kts
09-Oct-18 17:34 34.684679 -116.602173 228 21194ft 392kts
09-Oct-18 17:35 34.617145 -116.686037 228 19389ft 382kts
09-Oct-18 17:36 34.545598 -116.777313 229 17455ft 371kts
09-Oct-18 17:37 34.475945 -116.866446 229 15520ft 362kts
09-Oct-18 17:38 34.407326 -116.953323 226 13647ft 355kts
09-Oct-18 17:39 34.336362 -117.027583 221 13066ft 306kts
09-Oct-18 17:40 34.273733 -117.092527 221 13111ft 293kts
09-Oct-18 17:41 34.196258 -117.118374 184 11927ft 299kts
09-Oct-18 17:42 34.115369 -117.130975 189 10423ft 292kts
09-Oct-18 17:43 34.040825 -117.145481 192 10105ft 254kts
09-Oct-18 17:44 33.972185 -117.157277 187 10065ft 249kts
09-Oct-18 17:45 33.903606 -117.167046 187 9970ft 245kts
09-Oct-18 17:46 33.846683 -117.198232 247 9006ft 263kts
09-Oct-18 17:47 33.823740 -117.278580 249 7969ft 237kts
09-Oct-18 17:48 33.800887 -117.352332 249 7988ft 250kts
09-Oct-18 17:49 33.781534 -117.432035 265 7973ft 250kts
09-Oct-18 17:50 33.778643 -117.507709 272 7966ft 210kts
09-Oct-18 17:51 33.800051 -117.570551 297 7250ft 206kts
09-Oct-18 17:52 33.824839 -117.632541 301 6051ft 204kts
09-Oct-18 17:53 33.856277 -117.686407 307 4893ft 201kts
09-Oct-18 17:54 33.866014 -117.744065 228 3752ft 198kts
09-Oct-18 17:55 33.819426 -117.777087 205 2951ft 174kts
09-Oct-18 17:56 33.782863 -117.800145 211 2394ft 142kts
09-Oct-18 17:57 33.748954 -117.822254 207 1634ft 137kts
09-Oct-18 17:58 33.714911 -117.844072 207 803ft 136kts
09-Oct-18 17:59 33.681970 -117.864836 208 114ft 130kts
09-Oct-18 18:00 33.669147 -117.871629 120 65ft 0kts
09-Oct-18 18:01 33.669302 -117.870695 40 65ft 13kts
09-Oct-18 18:02 33.673647 -117.866741 30 65ft 20kts
09-Oct-18 18:03 33.678606 -117.863610 31 65ft 7kts
09-Oct-18 18:04 33.678693 -117.862711 100 65ft 0kts

Navigation Log

Ident Type
Flight plan parsing failed, navigation log unavailable